Fernley, NV

12:07 PM PDT on April 25, 2015 (GMT -0700)
CW2857 - Trinity Alarms - Sage Valley Estates | | Change Station
CLOSE
Current Station
Personal Weather Station
Location: Fernley, NV
Elevation: 4210 ft
Nearby Weather Stations

Elev 4210 ft 39.60 °N, 119.23 °W | Updated 12 minutes ago

Overcast
Overcast
48.2 °F
Feels Like 43 °F
N
14.0
Wind Variable Wind from North
Gusts 20.0 mph

Today
High -- | Low -- °F
--% Chance of Precip.
Yesterday
High -- | Low -- °F
Precip. -- in
6:05 AM 7:44 PM
Waxing Crescent, 48% visible
Pressure 29.81 in
Visibility 10.0 miles
Clouds Few 2900 ft
Mostly Cloudy 4300 ft
Mostly Cloudy 7000 ft
Windchill 43 °F
Dew Point 34 °F
Humidity 59%
Rainfall 0.20 in
Snow Depth Not available.
UV 6 out of 12
Pollen 8.70 out of 12
Air Quality Not available.
Flu Activity Sporadic
METAR KRNO 251855Z 36014KT 10SM FEW029 BKN043 BKN070 10/M01 A2987 RMK AO2 SLP094 SH VC SE-SW MTN TOPS OBSCD SW-W T01001011

More Conditions Fewer Conditions

Pressure 29.81 in
Visibility 10.0 miles
Clouds Few 2900 ft
Mostly Cloudy 4300 ft
Mostly Cloudy 7000 ft
Windchill 43 °F
Dew Point 34 °F
Humidity 59%
Rainfall 0.20 in
Snow Depth Not available.
UV 6 out of 12
Pollen 8.70 out of 12
Air Quality Not available.
Flu Activity Sporadic
METAR KRNO 251855Z 36014KT 10SM FEW029 BKN043 BKN070 10/M01 A2987 RMK AO2 SLP094 SH VC SE-SW MTN TOPS OBSCD SW-W T01001011

More Conditions Fewer Conditions

10-Day Weather Forecast

Almanac

Astronomy

Apr. 25, 2015 Rise Set
Actual Time
Civil Twilight
Nautical Twilight
Astronomical Twilight
Moon
Length of Visible Light
Length of Day
Tomorrow will be .
, % of the Moon is Illuminated

Today's Extremes

State Highs State Lows

Community

WunderPhotos

Upload Photos

1,816,768 photos uploaded!

WunderBlogs® & News

Nearby

Air Quality

  Air Quality AQ Index Pollutant
Not available.

Snow Depth

Station Depth Elevation

Earthquake Activity

City Distance Mag. Time & Date
Minimum magnitude displayed is 2.5.

Coastal Water Temperatures

Place Temperature

Stations

Nearby Weather Stations

Station Location Temp. Windchill Dew Point Humidity Wind Precip. Elev Updated Type